Airfield :
LOGIN :

Register | Disclaimer

   EN    FR    IT 

 










Legend :    VFR   Marginal VFR   IFR   Intensive IFR   Very Intensive IFR
Visi :
Ceiling :
>= 8 km
>= 3000ft
5 to 8 km
1000 to 3000 ft
1500m to 5 km
500 to 1000 ft
800 to 1500m
200 to 500 ft
< 800m
< 200 ft
Symbols :   Thunderstorms  Fog  Heavy snow  Heavy precipitations  Wind > 20 kt
SIGMETs :     Misc.  Thunderstorms  Icing  Turbulence  Mountain Waves  Volcanic Ashes






- Airport Elevation : 184 ft
- IATA code : BRU


EBBR - Bruxelles

CURRENT METAR :
  • 170750Z 14001KT CAVOK 00/M00 Q1011 NOSIG

EXPIRED METARs :
  • 170720Z 16003KT 7000 NSC 00/M01 Q1011 NOSIG
  • 170650Z 14004KT 7000 NSC 00/M01 Q1011 NOSIG
  • 170620Z 14004KT CAVOK M00/M01 Q1011 NOSIG
  • 170550Z 15002KT CAVOK M00/M01 Q1011 NOSIG
  • 170520Z 12002KT CAVOK 00/M00 Q1011 TEMPO 3000 BR

TAF TAF EBBR
Valid from the 17 at 06:00 until the 18 at 12:00 UTC


170513Z 1706/1812 05004KT 9999 FEW040
PROB40
TEMPO 1706/1709 4000 BR
PROB30
TEMPO 1706/1708 2000 MIFG
TEMPO 1722/1812 3500 RA RADZ BKN007
BECMG 1800/1802 33010KT



MET'MAP, your aeronautical weather chart ! - Copyright ORBIFLY December 2007 - Disclaimer

ORBIFLY MET'MAP TEAM :

Programming & Development : Alexandra Zaïnal
Concept & Development : Baudouin d'Aumeries
Co-Development & Prog : Marc-Olivier Méhu
Technical & hardware support : Manuel Goepfert

Contact : metmap@orbifly.com




SOURCES & CREDITS :

   NOAA